createdAt,value
2019-05-11T00:00:41.884Z,5.47
2019-05-11T00:03:29.785Z,5.47
2019-05-11T00:06:17.416Z,5.20
2019-05-11T00:09:06.852Z,4.50
2019-05-11T00:11:54.752Z,4.60
2019-05-11T00:14:42.628Z,4.73
2019-05-11T00:17:30.704Z,7.03
2019-05-11T00:20:18.465Z,4.40
2019-05-11T00:23:06.024Z,4.73
2019-05-11T00:25:53.703Z,5.00
2019-05-11T00:28:41.459Z,4.90
2019-05-11T00:31:29.641Z,5.70
2019-05-11T00:34:17.471Z,5.83
2019-05-11T00:37:05.207Z,5.57
2019-05-11T00:39:53.370Z,5.20
2019-05-11T00:42:41.555Z,5.50
2019-05-11T00:45:29.413Z,5.80
2019-05-11T00:48:17.154Z,6.03
2019-05-11T00:51:04.984Z,6.23
2019-05-11T00:53:52.572Z,6.50
2019-05-11T00:56:40.584Z,5.97
2019-05-11T00:59:28.567Z,6.23
2019-05-11T01:02:16.797Z,5.73
2019-05-11T01:05:06.261Z,6.27
2019-05-11T01:07:54.124Z,5.80
2019-05-11T01:10:42.798Z,5.20
2019-05-11T01:13:30.976Z,5.57
2019-05-11T01:16:19.380Z,4.93
2019-05-11T01:19:07.356Z,5.80
2019-05-11T01:21:55.384Z,6.00
2019-05-11T01:24:42.979Z,6.10
2019-05-11T01:27:30.839Z,6.37
2019-05-11T01:30:18.865Z,6.20
2019-05-11T01:33:06.619Z,6.30
2019-05-11T01:35:54.432Z,6.63
2019-05-11T01:38:42.284Z,6.40
2019-05-11T01:41:30.295Z,6.60
2019-05-11T01:44:18.300Z,6.40
2019-05-11T01:47:06.090Z,6.10
2019-05-11T01:49:53.939Z,6.20
2019-05-11T01:52:41.765Z,6.20
2019-05-11T01:55:29.617Z,6.53
2019-05-11T01:58:17.465Z,6.27
2019-05-11T02:01:05.592Z,6.80
2019-05-11T02:03:53.433Z,7.03
2019-05-11T02:06:41.180Z,7.03
2019-05-11T02:09:29.011Z,7.37
2019-05-11T02:12:16.936Z,7.10
2019-05-11T02:15:05.393Z,7.33
2019-05-11T02:17:53.052Z,7.13
2019-05-11T02:20:40.933Z,6.50
2019-05-11T02:23:29.093Z,6.57
2019-05-11T02:26:16.842Z,6.87
2019-05-11T02:29:04.768Z,6.53
2019-05-11T02:31:52.724Z,6.60
2019-05-11T02:34:40.688Z,5.10
2019-05-11T02:37:28.433Z,4.27
2019-05-11T02:40:17.073Z,4.50
2019-05-11T02:43:04.764Z,3.87
2019-05-11T02:45:52.489Z,3.70
2019-05-11T02:48:40.264Z,3.30
2019-05-11T02:51:29.880Z,3.17
2019-05-11T02:54:18.238Z,3.40
2019-05-11T02:57:06.126Z,3.07
2019-05-11T02:59:54.034Z,3.33
2019-05-11T03:02:41.857Z,3.17
2019-05-11T03:05:29.822Z,2.73
2019-05-11T03:08:17.910Z,2.97
2019-05-11T03:11:05.760Z,6.43
2019-05-11T03:13:53.784Z,4.37
2019-05-11T03:16:41.665Z,3.10
2019-05-11T03:19:29.700Z,2.87
2019-05-11T03:22:17.370Z,2.87
2019-05-11T03:25:06.148Z,2.60
2019-05-11T03:27:53.928Z,2.57
2019-05-11T03:30:41.865Z,2.67
2019-05-11T03:33:29.756Z,2.60
2019-05-11T03:36:17.601Z,2.53
2019-05-11T03:39:05.929Z,3.13
2019-05-11T03:42:12.058Z,2.93
2019-05-11T03:44:44.218Z,2.73
2019-05-11T03:47:32.146Z,2.40
2019-05-11T03:50:19.678Z,2.73
2019-05-11T03:53:07.425Z,2.33
2019-05-11T03:55:55.277Z,2.80
2019-05-11T03:58:43.003Z,2.50
2019-05-11T04:01:30.947Z,2.30
2019-05-11T04:04:18.830Z,2.67
2019-05-11T04:07:06.838Z,2.63
2019-05-11T04:09:54.494Z,2.40
2019-05-11T04:12:42.408Z,2.13
2019-05-11T04:15:30.321Z,2.40
2019-05-11T04:18:18.290Z,2.50
2019-05-11T04:21:06.038Z,2.43
2019-05-11T04:23:53.961Z,2.33
2019-05-11T04:26:41.746Z,2.30
2019-05-11T04:29:29.648Z,2.27
2019-05-11T04:32:17.291Z,2.77
2019-05-11T04:35:06.467Z,2.70
2019-05-11T04:37:54.743Z,2.53
2019-05-11T04:40:42.274Z,2.70
2019-05-11T04:43:29.776Z,2.50
2019-05-11T04:46:17.681Z,2.40
2019-05-11T04:49:05.502Z,2.20
2019-05-11T04:51:53.516Z,2.07
2019-05-11T04:54:41.289Z,2.17
2019-05-11T04:57:28.807Z,2.03
2019-05-11T05:00:16.977Z,2.43
2019-05-11T05:03:04.841Z,2.20
2019-05-11T05:05:52.897Z,1.90
2019-05-11T05:08:40.845Z,2.27
2019-05-11T05:11:35.841Z,1.93
2019-05-11T05:14:18.047Z,1.80
2019-05-11T05:17:05.765Z,2.07
2019-05-11T05:19:53.724Z,2.20
2019-05-11T05:22:41.670Z,1.97
2019-05-11T05:25:29.537Z,2.17
2019-05-11T05:28:17.454Z,2.13
2019-05-11T05:31:05.111Z,2.10
2019-05-11T05:33:53.036Z,1.77
2019-05-11T05:36:40.948Z,1.97
2019-05-11T05:39:28.669Z,2.10
2019-05-11T05:42:16.427Z,2.00
2019-05-11T05:45:06.414Z,1.90
2019-05-11T05:47:54.076Z,1.97
2019-05-11T05:50:41.808Z,1.50
2019-05-11T05:53:29.433Z,2.40
2019-05-11T05:56:17.212Z,2.80
2019-05-11T05:59:05.258Z,2.90
2019-05-11T06:01:53.031Z,2.80
2019-05-11T06:04:40.948Z,2.20
2019-05-11T06:07:28.860Z,2.00
2019-05-11T06:10:17.157Z,1.97
2019-05-11T06:13:04.829Z,1.70
2019-05-11T06:15:52.628Z,1.87
2019-05-11T06:18:40.653Z,2.00
2019-05-11T06:21:28.340Z,2.00
2019-05-11T06:24:16.124Z,1.90
2019-05-11T06:27:04.062Z,2.17
2019-05-11T06:29:52.041Z,1.50
2019-05-11T06:32:39.901Z,1.70
2019-05-11T06:35:27.705Z,2.00
2019-05-11T06:38:15.648Z,1.90
2019-05-11T06:41:03.429Z,1.80
2019-05-11T06:44:01.345Z,1.70
2019-05-11T06:46:40.981Z,1.90
2019-05-11T06:49:28.760Z,1.40
2019-05-11T06:52:16.524Z,1.67
2019-05-11T06:55:04.959Z,1.70
2019-05-11T06:57:52.684Z,1.43
2019-05-11T07:00:40.578Z,1.33
2019-05-11T07:03:28.598Z,1.40
2019-05-11T07:06:16.776Z,1.60
2019-05-11T07:09:06.788Z,1.70
2019-05-11T07:11:54.336Z,1.80
2019-05-11T07:14:42.137Z,1.60
2019-05-11T07:17:30.017Z,1.73
2019-05-11T07:20:18.064Z,1.50
2019-05-11T07:23:05.717Z,1.60
2019-05-11T07:25:53.601Z,1.60
2019-05-11T07:28:41.488Z,1.70
2019-05-11T07:31:29.183Z,1.60
2019-05-11T07:34:18.494Z,1.40
2019-05-11T07:37:08.226Z,1.60
2019-05-11T07:39:58.035Z,1.50
2019-05-11T07:42:48.555Z,1.40
2019-05-11T07:45:38.525Z,1.70
2019-05-11T07:48:27.643Z,1.30
2019-05-11T07:51:18.078Z,1.67
2019-05-11T07:54:08.263Z,1.70
2019-05-11T07:56:55.440Z,1.63
2019-05-11T07:59:43.120Z,2.03
2019-05-11T08:02:32.407Z,1.50
2019-05-11T08:05:20.353Z,1.53
2019-05-11T08:08:08.749Z,1.53
2019-05-11T08:10:58.694Z,1.43
2019-05-11T08:13:48.127Z,1.37
2019-05-11T08:16:39.102Z,1.80
2019-05-11T08:19:28.306Z,1.60
2019-05-11T08:22:16.217Z,1.60
2019-05-11T08:25:09.295Z,1.33
2019-05-11T08:27:58.777Z,1.40
2019-05-11T08:30:48.671Z,1.40
2019-05-11T08:33:38.946Z,1.10
2019-05-11T08:36:28.880Z,1.00
2019-05-11T08:39:18.204Z,1.30
2019-05-11T08:42:08.531Z,1.30
2019-05-11T08:45:12.721Z,1.20
2019-05-11T08:47:48.336Z,1.27
2019-05-11T08:50:35.176Z,1.20
2019-05-11T08:53:22.959Z,1.10
2019-05-11T08:56:13.274Z,1.30
2019-05-11T08:59:00.772Z,1.10
2019-05-11T09:01:48.708Z,0.90
2019-05-11T09:04:41.610Z,1.10
2019-05-11T09:07:27.780Z,1.10
2019-05-11T09:10:18.472Z,0.80
2019-05-11T09:13:07.928Z,1.00
2019-05-11T09:15:56.029Z,1.23
2019-05-11T09:18:44.006Z,1.10
2019-05-11T09:21:31.946Z,0.80
2019-05-11T09:24:19.776Z,0.90
2019-05-11T09:27:07.887Z,0.70
2019-05-11T09:29:55.614Z,0.90
2019-05-11T09:32:43.368Z,0.80
2019-05-11T09:35:31.228Z,0.63
2019-05-11T09:38:19.090Z,0.83
2019-05-11T09:41:08.932Z,0.60
2019-05-11T09:43:58.639Z,0.60
2019-05-11T09:46:47.826Z,0.70
2019-05-11T09:49:46.486Z,0.70
2019-05-11T09:52:27.653Z,0.93
2019-05-11T09:55:15.978Z,0.50
2019-05-11T09:58:03.897Z,0.90
2019-05-11T10:00:51.561Z,0.60
2019-05-11T10:03:39.492Z,0.80
2019-05-11T10:06:28.185Z,0.73
2019-05-11T10:09:18.467Z,0.80
2019-05-11T10:12:07.997Z,0.67
2019-05-11T10:14:55.445Z,3.53
2019-05-11T10:17:43.053Z,11.70
2019-05-11T10:20:30.873Z,1.30
2019-05-11T10:23:18.728Z,1.00
2019-05-11T10:26:07.986Z,0.80
2019-05-11T10:28:58.323Z,0.80
2019-05-11T10:31:47.892Z,0.80
2019-05-11T10:34:34.570Z,0.80
2019-05-11T10:37:22.200Z,0.87
2019-05-11T10:40:10.819Z,1.87
2019-05-11T10:42:59.157Z,1.40
2019-05-11T10:45:48.362Z,0.80
2019-05-11T10:48:38.677Z,1.17
2019-05-11T10:51:26.047Z,0.97
2019-05-11T10:54:14.056Z,1.30
2019-05-11T10:57:02.098Z,1.00
2019-05-11T10:59:49.949Z,0.60
2019-05-11T11:02:38.455Z,0.80
2019-05-11T11:05:27.948Z,1.13
2019-05-11T11:08:18.381Z,0.93
2019-05-11T11:11:08.043Z,0.80
2019-05-11T11:13:55.564Z,1.10
2019-05-11T11:16:43.364Z,1.10
2019-05-11T11:19:30.942Z,0.73
2019-05-11T11:22:36.068Z,1.00
2019-05-11T11:25:09.092Z,0.87
2019-05-11T11:27:57.825Z,0.80
2019-05-11T11:30:47.981Z,0.60
2019-05-11T11:33:35.652Z,0.80
2019-05-11T11:36:23.428Z,0.70
2019-05-11T11:39:11.356Z,0.93
2019-05-11T11:41:59.166Z,0.70
2019-05-11T11:44:48.340Z,0.73
2019-05-11T11:47:38.444Z,0.80
2019-05-11T11:50:27.742Z,1.00
2019-05-11T11:53:15.625Z,0.67
2019-05-11T11:56:03.628Z,0.97
2019-05-11T11:58:51.804Z,1.03
2019-05-11T12:01:39.904Z,0.63
2019-05-11T12:04:28.231Z,0.90
2019-05-11T12:07:17.968Z,0.97
2019-05-11T12:10:07.833Z,1.60
2019-05-11T12:12:57.996Z,1.00
2019-05-11T12:15:45.388Z,0.70
2019-05-11T12:18:33.112Z,0.80
2019-05-11T12:21:21.104Z,0.80
2019-05-11T12:24:08.930Z,1.00
2019-05-11T12:26:58.773Z,0.97
2019-05-11T12:29:47.721Z,0.83
2019-05-11T12:32:38.388Z,0.97
2019-05-11T12:35:28.236Z,1.00
2019-05-11T12:38:18.469Z,0.70
2019-05-11T12:41:08.654Z,1.00
2019-05-11T12:43:57.785Z,0.67
2019-05-11T12:46:45.805Z,0.90
2019-05-11T12:49:33.601Z,0.67
2019-05-11T12:52:21.632Z,0.90
2019-05-11T12:55:09.893Z,0.50
2019-05-11T12:57:58.086Z,0.47
2019-05-11T13:00:47.874Z,0.57
2019-05-11T13:03:35.757Z,0.90
2019-05-11T13:06:23.736Z,0.87
2019-05-11T13:09:11.612Z,1.17
2019-05-11T13:11:59.325Z,0.87
2019-05-11T13:14:48.848Z,0.73
2019-05-11T13:17:38.365Z,0.83
2019-05-11T13:20:27.910Z,1.20
2019-05-11T13:23:15.842Z,0.80
2019-05-11T13:26:03.763Z,1.00
2019-05-11T13:28:51.728Z,1.10
2019-05-11T13:31:39.636Z,1.00
2019-05-11T13:34:31.176Z,0.90
2019-05-11T13:37:18.853Z,1.00
2019-05-11T13:40:07.824Z,1.00
2019-05-11T13:42:58.041Z,1.10
2019-05-11T13:45:47.949Z,0.80
2019-05-11T13:48:35.811Z,1.40
2019-05-11T13:51:23.637Z,1.30
2019-05-11T13:54:11.502Z,1.00
2019-05-11T13:56:59.508Z,1.00
2019-05-11T13:59:47.718Z,1.00
2019-05-11T14:02:37.747Z,0.80
2019-05-11T14:05:25.768Z,1.70
2019-05-11T14:08:13.686Z,1.60
2019-05-11T14:11:01.448Z,1.60
2019-05-11T14:13:49.363Z,1.10
2019-05-11T14:16:37.920Z,1.17
2019-05-11T14:19:28.225Z,0.83
2019-05-11T14:22:15.253Z,0.70
2019-05-11T14:25:03.828Z,0.80
2019-05-11T14:27:51.084Z,1.00
2019-05-11T14:30:39.072Z,0.80
2019-05-11T14:33:28.306Z,0.90
2019-05-11T14:36:18.415Z,0.90
2019-05-11T14:39:08.464Z,0.90
2019-05-11T14:41:58.546Z,0.83
2019-05-11T14:44:48.303Z,1.03
2019-05-11T14:47:38.643Z,0.90
2019-05-11T14:50:28.054Z,1.00
2019-05-11T14:53:17.728Z,0.97
2019-05-11T14:56:08.081Z,1.10
2019-05-11T14:58:55.120Z,0.90
2019-05-11T15:01:42.976Z,1.07
2019-05-11T15:04:30.904Z,2.07
2019-05-11T15:07:18.925Z,1.13
2019-05-11T15:10:08.359Z,1.10
2019-05-11T15:12:56.072Z,1.10
2019-05-11T15:15:43.981Z,1.00
2019-05-11T15:18:38.603Z,1.40
2019-05-11T15:21:21.564Z,1.50
2019-05-11T15:24:09.440Z,1.17
2019-05-11T15:26:57.592Z,1.50
2019-05-11T15:29:47.728Z,1.83
2019-05-11T15:32:35.025Z,2.10
2019-05-11T15:35:23.239Z,2.57
2019-05-11T15:38:10.933Z,2.67
2019-05-11T15:40:58.578Z,2.73
2019-05-11T15:43:47.932Z,1.60
2019-05-11T15:46:35.688Z,1.70
2019-05-11T15:49:23.590Z,2.60
2019-05-11T15:52:11.525Z,2.47
2019-05-11T15:54:59.491Z,2.70
2019-05-11T15:57:48.309Z,4.90
2019-05-11T16:00:39.697Z,8.63
2019-05-11T16:03:26.140Z,8.97
2019-05-11T16:06:14.337Z,5.83
2019-05-11T16:09:02.187Z,6.63
2019-05-11T16:11:50.189Z,8.70
2019-05-11T16:14:38.320Z,7.13
2019-05-11T16:17:26.144Z,5.13
2019-05-11T16:20:14.293Z,7.17
2019-05-11T16:23:02.271Z,7.63
2019-05-11T16:25:49.889Z,5.57
2019-05-11T16:28:38.349Z,7.37
2019-05-11T16:31:28.394Z,7.00
2019-05-11T16:34:15.681Z,6.60
2019-05-11T16:37:05.369Z,8.30
2019-05-11T16:39:52.853Z,8.70
2019-05-11T16:42:40.831Z,9.20
2019-05-11T16:45:28.620Z,7.10
2019-05-11T16:48:18.472Z,6.57
2019-05-11T16:51:08.431Z,6.30
2019-05-11T16:53:58.596Z,6.80
2019-05-11T16:56:48.551Z,8.53
2019-05-11T16:59:39.631Z,15.03
2019-05-11T17:02:27.381Z,13.07
2019-05-11T17:05:26.047Z,9.43
2019-05-11T17:08:08.150Z,6.30
2019-05-11T17:10:59.141Z,5.00
2019-05-11T17:13:48.330Z,5.70
2019-05-11T17:16:38.558Z,4.53
2019-05-11T17:19:42.136Z,6.40
2019-05-11T17:22:18.994Z,5.03
2019-05-11T17:25:08.724Z,5.47
2019-05-11T17:27:58.645Z,5.33
2019-05-11T17:30:48.095Z,5.17
2019-05-11T17:33:38.266Z,4.77
2019-05-11T17:36:27.910Z,4.73
2019-05-11T17:39:15.260Z,4.27
2019-05-11T17:42:03.513Z,3.60
2019-05-11T17:44:51.194Z,4.30
2019-05-11T17:47:39.060Z,3.67
2019-05-11T17:50:28.234Z,4.30
2019-05-11T17:53:18.234Z,5.87
2019-05-11T17:56:05.830Z,4.50
2019-05-11T17:58:53.648Z,6.53
2019-05-11T18:01:41.437Z,8.30
2019-05-11T18:04:29.165Z,4.40
2019-05-11T18:07:25.134Z,3.60
2019-05-11T18:10:08.203Z,5.33
2019-05-11T18:12:57.813Z,7.63
2019-05-11T18:15:45.596Z,11.07
2019-05-11T18:18:33.441Z,9.70
2019-05-11T18:21:21.068Z,5.93
2019-05-11T18:24:09.095Z,15.83
2019-05-11T18:26:59.166Z,6.27
2019-05-11T18:29:48.574Z,16.03
2019-05-11T18:32:39.077Z,15.67
2019-05-11T18:35:27.881Z,7.27
2019-05-11T18:38:17.832Z,7.73
2019-05-11T18:41:05.232Z,5.90
2019-05-11T18:43:53.180Z,6.50
2019-05-11T18:46:40.900Z,6.60
2019-05-11T18:49:28.755Z,7.50
2019-05-11T18:52:18.672Z,7.23
2019-05-11T18:55:08.459Z,7.53
2019-05-11T18:57:57.966Z,8.60
2019-05-11T19:00:45.968Z,10.07
2019-05-11T19:03:33.722Z,8.63
2019-05-11T19:06:22.536Z,11.20
2019-05-11T19:09:11.005Z,9.03
2019-05-11T19:11:59.318Z,8.73
2019-05-11T19:14:47.975Z,7.80
2019-05-11T19:17:38.521Z,8.60
2019-05-11T19:20:28.387Z,20.10
2019-05-11T19:23:16.306Z,8.73
2019-05-11T19:26:04.677Z,7.20
2019-05-11T19:28:52.591Z,7.97
2019-05-11T19:31:40.437Z,6.83
2019-05-11T19:34:28.396Z,7.57
2019-05-11T19:37:18.665Z,9.20
2019-05-11T19:40:09.035Z,8.10
2019-05-11T19:42:59.159Z,9.10
2019-05-11T19:45:48.678Z,7.60
2019-05-11T19:48:38.349Z,8.03
2019-05-11T19:51:25.649Z,8.37
2019-05-11T19:54:13.789Z,8.20
2019-05-11T19:57:01.908Z,7.40
2019-05-11T19:59:49.599Z,7.70
2019-05-11T20:02:39.011Z,8.10
2019-05-11T20:05:28.870Z,9.40
2019-05-11T20:08:18.414Z,17.53
2019-05-11T20:11:08.086Z,9.33
2019-05-11T20:13:55.322Z,9.67
2019-05-11T20:16:43.481Z,9.80
2019-05-11T20:19:31.113Z,8.20
2019-05-11T20:22:19.408Z,9.30
2019-05-11T20:25:09.070Z,10.10
2019-05-11T20:27:58.482Z,7.03
2019-05-11T20:30:48.267Z,8.73
2019-05-11T20:33:38.327Z,7.40
2019-05-11T20:36:26.005Z,6.77
2019-05-11T20:39:13.864Z,7.90
2019-05-11T20:42:01.768Z,10.80
2019-05-11T20:44:49.761Z,7.80
2019-05-11T20:47:38.219Z,9.17
2019-05-11T20:50:26.189Z,8.17
2019-05-11T20:53:13.944Z,8.60
2019-05-11T20:56:01.772Z,8.67
2019-05-11T20:58:58.821Z,9.53
2019-05-11T21:01:47.979Z,10.67
2019-05-11T21:04:38.448Z,10.27
2019-05-11T21:07:27.472Z,6.23
2019-05-11T21:10:15.565Z,5.60
2019-05-11T21:13:03.972Z,5.17
2019-05-11T21:15:51.661Z,5.27
2019-05-11T21:18:39.244Z,4.93
2019-05-11T21:21:27.863Z,5.07
2019-05-11T21:24:18.762Z,4.53
2019-05-11T21:27:06.874Z,4.60
2019-05-11T21:29:54.581Z,4.30
2019-05-11T21:32:42.652Z,4.10
2019-05-11T21:35:31.580Z,4.07
2019-05-11T21:38:19.328Z,4.10
2019-05-11T21:41:08.805Z,4.27
2019-05-11T21:43:58.505Z,4.90
2019-05-11T21:46:46.185Z,4.73
2019-05-11T21:49:34.188Z,5.43
2019-05-11T21:52:21.944Z,5.93
2019-05-11T21:55:10.196Z,5.90
2019-05-11T21:57:58.253Z,6.90
2019-05-11T22:00:49.908Z,6.97
2019-05-11T22:03:38.254Z,6.43
2019-05-11T22:06:30.150Z,6.60
2019-05-11T22:09:18.388Z,6.97
2019-05-11T22:12:07.858Z,7.00
2019-05-11T22:14:57.896Z,6.73
2019-05-11T22:17:45.160Z,7.17
2019-05-11T22:20:33.040Z,7.10
2019-05-11T22:23:20.722Z,6.83
2019-05-11T22:26:08.552Z,6.53
2019-05-11T22:28:56.156Z,6.57
2019-05-11T22:31:43.855Z,6.30
2019-05-11T22:34:31.504Z,6.10
2019-05-11T22:37:19.509Z,6.93
2019-05-11T22:40:09.412Z,5.97
2019-05-11T22:42:58.429Z,6.80
2019-05-11T22:45:48.598Z,5.87
2019-05-11T22:48:38.118Z,6.90
2019-05-11T22:51:26.076Z,6.00
2019-05-11T22:54:13.872Z,6.03
2019-05-11T22:57:01.976Z,6.43
2019-05-11T22:59:49.929Z,6.10
2019-05-11T23:02:38.380Z,5.93
2019-05-11T23:05:27.683Z,6.50
2019-05-11T23:08:18.109Z,6.37
2019-05-11T23:11:05.396Z,6.40
2019-05-11T23:13:53.294Z,5.97
2019-05-11T23:16:40.944Z,5.97
2019-05-11T23:19:28.921Z,5.63
2019-05-11T23:22:18.277Z,6.20
2019-05-11T23:25:08.042Z,6.73
2019-05-11T23:27:55.896Z,6.97
2019-05-11T23:30:43.528Z,6.70
2019-05-11T23:33:31.331Z,6.77
2019-05-11T23:36:19.360Z,6.67
2019-05-11T23:39:09.025Z,7.27
2019-05-11T23:41:58.634Z,7.10
2019-05-11T23:44:48.368Z,7.17
2019-05-11T23:47:39.037Z,7.00
2019-05-11T23:50:28.167Z,6.97
2019-05-11T23:53:17.846Z,7.60
2019-05-11T23:56:05.873Z,7.67
2019-05-11T23:58:53.567Z,7.03
